Pagrindinis puslapis
METAR-TAF:

METAR-TAF

Oro uostai :

Šiaulių oro uostas

Šiauliai, Lietuva

platuma: 55-53-38N, ilguma: 023-23-42E, Aukštis: 135 m

Dabartinis oras

Ataskaita buvo paskelbta 22 minutes, ne 17:50 UTC
Vėjas 9 kt iš Rytų/Šiaurės Rytų
Temperatūra 1°C
Drėgmė 93%
Slėgis 1034 hPa
Matomumas 10 km arba daugiau
Apsiniaukę ne aukštis 1100 ft

METAR: EYSA 191750Z 06009KT 9999 OVC011 01/M00 Q1034 R14L/09//95 GRN NOSIG

Laikas: 20:12 (18:12 UTC)

Prognozė

Ataskaita buvo paskelbta 1 valandą ir 12 minutes, ne 17:00 UTC
Prognozė galioja nuo 19 metu 18 UTC su 20 metu 03 UTC
Vėjas 8 kt iš Rytų/Šiaurės Rytų
Matomumas: 7000 m
Apsiniaukę ne aukštis 1000 ft
Laikinai
nuo 19 metu 18 UTC su 19 metu 21 UTC
Su prošvaistėmis ne aukštis 500 ft
lietus
Laikinai
nuo 19 metu 21 UTC su 20 metu 03 UTC
Matomumas: 1500 m
Su prošvaistėmis ne aukštis 500 ft
sniegas, lietus

TAF: EYSA 191700Z 1918/2003 07008KT 7000 OVC010 TEMPO 1918/1921 -RA BKN005 TEMPO 1921/2003 1500 -SNRA BKN005

Orai ataskaitas ir orų prognozės (METAR, TAF).

turimą stotys yra geltonos ir raudonos taškus žemėlapyje.

Perkelti pele per norėdami pamatyti stoties vardą.

Tada spustelėkite, norėdami matyti oro stebėjimo ir prognozės.

Norėdami pakeisti žemėlapį: spustelėkite ant žalios mygtukų su juodo kryžiaus žemyn,; žalią mygtuką su brūkšneliu, jei norite nutolinti; arba žalių rodyklių gretimoms žemėlapius.


METAR-TAF: